Aarau, Switzerland
Current Conditions -  °F | °C
As of 11:20 PM on Tuesday 25 Nov 2014 (Local Time) from LSZH Reporting Station
Broken Clouds Broken Clouds  
Wind Chill: 45°   Ceiling: 1100
Heat Index: 45°   Visibility: 3mi
Dew Point: 45°   Wind: 3mph
Humidity: 100%   Direction: 330°NNW
Pressure: 30.06"   Gusts: NA
Location:  47.4°N, 8.04°E
Report Text: LSZH 252220Z 33003KT 5000 FEW005 SCT009 BKN011 07/07 Q1018 BECMG 4500 BKN009
Loading
Personal Weather Stations






























Interactive Weather Map New forecast layout! Learn more

10-Day Weather Forecast

Advertisements
Track Severe Weather on mobile